sensor_id;sensor_type;location;lat;lon;timestamp;P1;durP1;ratioP1;P2;durP2;ratioP2
63801;SDS011;49949;43.060;25.624;2023-07-30T00:01:40;5.20;;;3.40;;
63801;SDS011;49949;43.060;25.624;2023-07-30T00:04:05;7.90;;;3.75;;
63801;SDS011;49949;43.060;25.624;2023-07-30T00:06:31;4.45;;;3.10;;
63801;SDS011;49949;43.060;25.624;2023-07-30T00:08:57;8.35;;;3.72;;
63801;SDS011;49949;43.060;25.624;2023-07-30T00:11:22;4.13;;;3.38;;
63801;SDS011;49949;43.060;25.624;2023-07-30T00:13:48;8.38;;;3.78;;
63801;SDS011;49949;43.060;25.624;2023-07-30T00:16:15;4.10;;;3.70;;
63801;SDS011;49949;43.060;25.624;2023-07-30T00:18:41;7.90;;;3.80;;
63801;SDS011;49949;43.060;25.624;2023-07-30T00:21:06;8.52;;;3.75;;
63801;SDS011;49949;43.060;25.624;2023-07-30T00:23:32;7.07;;;3.40;;
63801;SDS011;49949;43.060;25.624;2023-07-30T00:25:58;5.53;;;3.00;;
63801;SDS011;49949;43.060;25.624;2023-07-30T00:28:23;12.43;;;3.83;;
63801;SDS011;49949;43.060;25.624;2023-07-30T00:30:49;6.20;;;3.13;;
63801;SDS011;49949;43.060;25.624;2023-07-30T00:33:15;6.05;;;3.45;;
63801;SDS011;49949;43.060;25.624;2023-07-30T00:35:40;7.18;;;3.78;;
63801;SDS011;49949;43.060;25.624;2023-07-30T00:38:06;8.02;;;3.30;;
63801;SDS011;49949;43.060;25.624;2023-07-30T00:40:32;4.07;;;3.65;;
63801;SDS011;49949;43.060;25.624;2023-07-30T00:42:57;7.90;;;4.00;;
63801;SDS011;49949;43.060;25.624;2023-07-30T00:45:23;7.18;;;4.45;;
63801;SDS011;49949;43.060;25.624;2023-07-30T00:47:49;5.70;;;4.00;;
63801;SDS011;49949;43.060;25.624;2023-07-30T00:50:15;5.78;;;3.50;;
63801;SDS011;49949;43.060;25.624;2023-07-30T00:52:42;8.82;;;3.63;;
63801;SDS011;49949;43.060;25.624;2023-07-30T00:55:08;14.35;;;4.00;;
63801;SDS011;49949;43.060;25.624;2023-07-30T00:57:36;6.60;;;3.35;;
63801;SDS011;49949;43.060;25.624;2023-07-30T01:00:02;8.13;;;3.38;;
63801;SDS011;49949;43.060;25.624;2023-07-30T01:02:33;12.38;;;4.40;;
63801;SDS011;49949;43.060;25.624;2023-07-30T01:05:03;6.88;;;3.70;;
63801;SDS011;49949;43.060;25.624;2023-07-30T01:07:30;5.47;;;3.45;;
63801;SDS011;49949;43.060;25.624;2023-07-30T01:09:56;15.80;;;4.00;;
63801;SDS011;49949;43.060;25.624;2023-07-30T01:12:22;11.75;;;4.72;;
63801;SDS011;49949;43.060;25.624;2023-07-30T01:14:48;6.72;;;4.05;;
63801;SDS011;49949;43.060;25.624;2023-07-30T01:17:15;4.63;;;3.38;;
63801;SDS011;49949;43.060;25.624;2023-07-30T01:19:41;5.65;;;2.83;;
63801;SDS011;49949;43.060;25.624;2023-07-30T01:22:07;4.22;;;3.22;;
63801;SDS011;49949;43.060;25.624;2023-07-30T01:24:32;10.32;;;5.78;;
63801;SDS011;49949;43.060;25.624;2023-07-30T01:26:59;3.55;;;3.08;;
63801;SDS011;49949;43.060;25.624;2023-07-30T01:30:06;6.00;;;3.22;;
63801;SDS011;49949;43.060;25.624;2023-07-30T01:32:33;5.95;;;3.40;;
63801;SDS011;49949;43.060;25.624;2023-07-30T01:35:00;5.18;;;3.10;;
63801;SDS011;49949;43.060;25.624;2023-07-30T01:37:27;3.33;;;3.03;;
63801;SDS011;49949;43.060;25.624;2023-07-30T01:39:54;3.88;;;3.03;;
63801;SDS011;49949;43.060;25.624;2023-07-30T01:42:21;6.47;;;2.90;;
63801;SDS011;49949;43.060;25.624;2023-07-30T01:44:47;4.18;;;2.90;;
63801;SDS011;49949;43.060;25.624;2023-07-30T01:47:12;4.95;;;2.90;;
63801;SDS011;49949;43.060;25.624;2023-07-30T01:49:38;6.03;;;3.80;;
63801;SDS011;49949;43.060;25.624;2023-07-30T01:52:04;8.32;;;3.63;;
63801;SDS011;49949;43.060;25.624;2023-07-30T01:54:29;6.82;;;4.13;;
63801;SDS011;49949;43.060;25.624;2023-07-30T01:56:55;6.78;;;4.05;;
63801;SDS011;49949;43.060;25.624;2023-07-30T01:59:21;10.00;;;4.47;;
63801;SDS011;49949;43.060;25.624;2023-07-30T02:01:46;6.90;;;4.22;;
63801;SDS011;49949;43.060;25.624;2023-07-30T02:04:12;5.13;;;3.50;;
63801;SDS011;49949;43.060;25.624;2023-07-30T02:06:38;8.02;;;4.18;;
63801;SDS011;49949;43.060;25.624;2023-07-30T02:09:03;6.80;;;3.80;;
63801;SDS011;49949;43.060;25.624;2023-07-30T02:11:29;12.95;;;3.70;;
63801;SDS011;49949;43.060;25.624;2023-07-30T02:13:55;5.82;;;3.67;;
63801;SDS011;49949;43.060;25.624;2023-07-30T02:16:20;14.88;;;3.83;;
63801;SDS011;49949;43.060;25.624;2023-07-30T02:18:46;6.40;;;4.28;;
63801;SDS011;49949;43.060;25.624;2023-07-30T02:21:12;5.15;;;3.90;;
63801;SDS011;49949;43.060;25.624;2023-07-30T02:23:38;3.83;;;3.47;;
63801;SDS011;49949;43.060;25.624;2023-07-30T02:26:03;9.00;;;3.90;;
63801;SDS011;49949;43.060;25.624;2023-07-30T02:28:29;4.95;;;3.90;;
63801;SDS011;49949;43.060;25.624;2023-07-30T02:30:55;7.65;;;3.80;;
63801;SDS011;49949;43.060;25.624;2023-07-30T02:33:20;5.18;;;3.53;;
63801;SDS011;49949;43.060;25.624;2023-07-30T02:35:46;7.45;;;4.40;;
63801;SDS011;49949;43.060;25.624;2023-07-30T02:38:12;8.65;;;4.70;;
63801;SDS011;49949;43.060;25.624;2023-07-30T02:40:37;7.65;;;4.30;;
63801;SDS011;49949;43.060;25.624;2023-07-30T02:43:03;7.85;;;3.83;;
63801;SDS011;49949;43.060;25.624;2023-07-30T02:45:29;4.53;;;3.53;;
63801;SDS011;49949;43.060;25.624;2023-07-30T02:47:55;8.40;;;4.70;;
63801;SDS011;49949;43.060;25.624;2023-07-30T02:50:20;6.68;;;4.10;;
63801;SDS011;49949;43.060;25.624;2023-07-30T02:52:46;5.43;;;3.78;;
63801;SDS011;49949;43.060;25.624;2023-07-30T02:55:12;11.25;;;6.53;;
63801;SDS011;49949;43.060;25.624;2023-07-30T02:57:37;9.93;;;4.65;;
63801;SDS011;49949;43.060;25.624;2023-07-30T03:00:03;15.40;;;5.25;;
63801;SDS011;49949;43.060;25.624;2023-07-30T03:02:29;12.95;;;5.00;;
63801;SDS011;49949;43.060;25.624;2023-07-30T03:04:55;7.93;;;5.13;;
63801;SDS011;49949;43.060;25.624;2023-07-30T03:07:21;4.93;;;4.03;;
63801;SDS011;49949;43.060;25.624;2023-07-30T03:09:47;7.93;;;4.93;;
63801;SDS011;49949;43.060;25.624;2023-07-30T03:12:13;6.57;;;4.93;;
63801;SDS011;49949;43.060;25.624;2023-07-30T03:14:39;18.27;;;4.80;;
63801;SDS011;49949;43.060;25.624;2023-07-30T03:17:05;5.95;;;4.18;;
63801;SDS011;49949;43.060;25.624;2023-07-30T03:19:31;46.50;;;6.32;;
63801;SDS011;49949;43.060;25.624;2023-07-30T03:21:57;11.68;;;5.32;;
63801;SDS011;49949;43.060;25.624;2023-07-30T03:24:22;21.67;;;4.93;;
63801;SDS011;49949;43.060;25.624;2023-07-30T03:26:48;7.93;;;4.43;;
63801;SDS011;49949;43.060;25.624;2023-07-30T03:29:14;10.00;;;5.00;;
63801;SDS011;49949;43.060;25.624;2023-07-30T03:31:41;6.80;;;4.45;;
63801;SDS011;49949;43.060;25.624;2023-07-30T03:34:06;8.98;;;4.75;;
63801;SDS011;49949;43.060;25.624;2023-07-30T03:36:32;10.57;;;4.15;;
63801;SDS011;49949;43.060;25.624;2023-07-30T03:38:58;7.40;;;4.63;;
63801;SDS011;49949;43.060;25.624;2023-07-30T03:41:24;13.63;;;8.00;;
63801;SDS011;49949;43.060;25.624;2023-07-30T03:43:50;6.53;;;3.90;;
63801;SDS011;49949;43.060;25.624;2023-07-30T03:46:16;5.25;;;3.85;;
63801;SDS011;49949;43.060;25.624;2023-07-30T03:48:41;7.00;;;4.28;;
63801;SDS011;49949;43.060;25.624;2023-07-30T03:51:07;6.40;;;4.10;;
63801;SDS011;49949;43.060;25.624;2023-07-30T03:53:33;9.10;;;4.32;;
63801;SDS011;49949;43.060;25.624;2023-07-30T03:55:59;11.25;;;4.00;;
63801;SDS011;49949;43.060;25.624;2023-07-30T03:58:25;21.23;;;4.38;;
63801;SDS011;49949;43.060;25.624;2023-07-30T04:00:50;19.85;;;4.72;;
63801;SDS011;49949;43.060;25.624;2023-07-30T04:03:16;12.25;;;4.30;;
63801;SDS011;49949;43.060;25.624;2023-07-30T04:05:42;7.90;;;5.15;;
63801;SDS011;49949;43.060;25.624;2023-07-30T04:08:07;32.95;;;5.72;;
63801;SDS011;49949;43.060;25.624;2023-07-30T04:10:33;18.90;;;6.03;;
63801;SDS011;49949;43.060;25.624;2023-07-30T04:12:59;17.20;;;6.43;;
63801;SDS011;49949;43.060;25.624;2023-07-30T04:15:25;14.20;;;4.97;;
63801;SDS011;49949;43.060;25.624;2023-07-30T04:17:50;20.10;;;6.18;;
63801;SDS011;49949;43.060;25.624;2023-07-30T04:20:16;13.27;;;5.72;;
63801;SDS011;49949;43.060;25.624;2023-07-30T04:22:43;11.70;;;5.03;;
63801;SDS011;49949;43.060;25.624;2023-07-30T04:25:09;22.45;;;5.97;;
63801;SDS011;49949;43.060;25.624;2023-07-30T04:27:38;10.30;;;5.70;;
63801;SDS011;49949;43.060;25.624;2023-07-30T04:30:07;14.82;;;6.38;;
63801;SDS011;49949;43.060;25.624;2023-07-30T04:32:33;26.42;;;7.18;;
63801;SDS011;49949;43.060;25.624;2023-07-30T04:34:59;26.52;;;6.78;;
63801;SDS011;49949;43.060;25.624;2023-07-30T04:37:25;9.80;;;6.13;;
63801;SDS011;49949;43.060;25.624;2023-07-30T04:39:51;18.75;;;7.55;;
63801;SDS011;49949;43.060;25.624;2023-07-30T04:42:16;12.07;;;7.35;;
63801;SDS011;49949;43.060;25.624;2023-07-30T04:44:42;25.25;;;10.30;;
63801;SDS011;49949;43.060;25.624;2023-07-30T04:47:08;24.65;;;12.55;;
63801;SDS011;49949;43.060;25.624;2023-07-30T04:49:34;30.02;;;10.95;;
63801;SDS011;49949;43.060;25.624;2023-07-30T04:52:02;23.73;;;11.20;;
63801;SDS011;49949;43.060;25.624;2023-07-30T04:54:28;29.85;;;11.57;;
63801;SDS011;49949;43.060;25.624;2023-07-30T04:56:53;28.02;;;14.27;;
63801;SDS011;49949;43.060;25.624;2023-07-30T04:59:19;27.67;;;13.88;;
63801;SDS011;49949;43.060;25.624;2023-07-30T05:01:45;44.13;;;15.98;;
63801;SDS011;49949;43.060;25.624;2023-07-30T05:04:10;36.92;;;19.95;;
63801;SDS011;49949;43.060;25.624;2023-07-30T05:06:36;40.75;;;23.25;;
63801;SDS011;49949;43.060;25.624;2023-07-30T05:09:02;58.03;;;31.13;;
63801;SDS011;49949;43.060;25.624;2023-07-30T05:11:28;35.97;;;20.50;;
63801;SDS011;49949;43.060;25.624;2023-07-30T05:13:53;31.92;;;16.83;;
63801;SDS011;49949;43.060;25.624;2023-07-30T05:16:19;40.58;;;17.38;;
63801;SDS011;49949;43.060;25.624;2023-07-30T05:18:45;32.38;;;15.73;;
63801;SDS011;49949;43.060;25.624;2023-07-30T05:21:10;27.10;;;16.13;;
63801;SDS011;49949;43.060;25.624;2023-07-30T05:23:36;24.30;;;15.13;;
63801;SDS011;49949;43.060;25.624;2023-07-30T05:26:02;30.58;;;14.57;;
63801;SDS011;49949;43.060;25.624;2023-07-30T05:28:27;25.98;;;14.32;;
63801;SDS011;49949;43.060;25.624;2023-07-30T05:30:53;27.17;;;14.20;;
63801;SDS011;49949;43.060;25.624;2023-07-30T05:33:19;22.52;;;11.43;;
63801;SDS011;49949;43.060;25.624;2023-07-30T05:35:44;19.38;;;10.60;;
63801;SDS011;49949;43.060;25.624;2023-07-30T05:38:10;21.20;;;10.95;;
63801;SDS011;49949;43.060;25.624;2023-07-30T05:40:36;23.38;;;10.43;;
63801;SDS011;49949;43.060;25.624;2023-07-30T05:43:02;15.93;;;8.90;;
63801;SDS011;49949;43.060;25.624;2023-07-30T05:45:29;13.10;;;6.85;;
63801;SDS011;49949;43.060;25.624;2023-07-30T05:47:54;10.70;;;5.78;;
63801;SDS011;49949;43.060;25.624;2023-07-30T05:50:20;12.38;;;6.20;;
63801;SDS011;49949;43.060;25.624;2023-07-30T05:52:46;16.83;;;6.72;;
63801;SDS011;49949;43.060;25.624;2023-07-30T05:55:11;12.70;;;6.68;;
63801;SDS011;49949;43.060;25.624;2023-07-30T05:57:37;11.60;;;7.05;;
63801;SDS011;49949;43.060;25.624;2023-07-30T06:00:03;12.32;;;6.00;;
63801;SDS011;49949;43.060;25.624;2023-07-30T06:02:29;9.65;;;5.30;;
63801;SDS011;49949;43.060;25.624;2023-07-30T06:04:55;12.13;;;5.63;;
63801;SDS011;49949;43.060;25.624;2023-07-30T06:07:20;9.65;;;4.47;;
63801;SDS011;49949;43.060;25.624;2023-07-30T06:09:46;4.60;;;3.60;;
63801;SDS011;49949;43.060;25.624;2023-07-30T06:12:12;7.00;;;3.67;;
63801;SDS011;49949;43.060;25.624;2023-07-30T06:14:38;3.85;;;3.17;;
63801;SDS011;49949;43.060;25.624;2023-07-30T06:17:03;22.15;;;3.08;;
63801;SDS011;49949;43.060;25.624;2023-07-30T06:19:29;3.20;;;2.53;;
63801;SDS011;49949;43.060;25.624;2023-07-30T06:21:54;3.15;;;2.13;;
63801;SDS011;49949;43.060;25.624;2023-07-30T06:24:20;3.88;;;2.78;;
63801;SDS011;49949;43.060;25.624;2023-07-30T06:26:46;76.25;;;4.85;;
63801;SDS011;49949;43.060;25.624;2023-07-30T06:29:11;4.18;;;3.08;;
63801;SDS011;49949;43.060;25.624;2023-07-30T06:31:37;2.88;;;2.65;;
63801;SDS011;49949;43.060;25.624;2023-07-30T06:34:03;4.72;;;3.10;;
63801;SDS011;49949;43.060;25.624;2023-07-30T06:36:29;2.53;;;2.30;;
63801;SDS011;49949;43.060;25.624;2023-07-30T06:38:56;49.67;;;4.18;;
63801;SDS011;49949;43.060;25.624;2023-07-30T06:41:22;4.72;;;2.83;;
63801;SDS011;49949;43.060;25.624;2023-07-30T06:43:48;3.53;;;2.50;;
63801;SDS011;49949;43.060;25.624;2023-07-30T06:46:13;2.95;;;2.33;;
63801;SDS011;49949;43.060;25.624;2023-07-30T06:48:39;5.25;;;2.10;;
63801;SDS011;49949;43.060;25.624;2023-07-30T06:51:09;3.75;;;2.38;;
63801;SDS011;49949;43.060;25.624;2023-07-30T06:53:35;2.97;;;2.22;;
63801;SDS011;49949;43.060;25.624;2023-07-30T06:56:00;3.50;;;2.40;;
63801;SDS011;49949;43.060;25.624;2023-07-30T06:58:26;3.10;;;2.40;;
63801;SDS011;49949;43.060;25.624;2023-07-30T07:00:52;4.88;;;2.22;;
63801;SDS011;49949;43.060;25.624;2023-07-30T07:03:17;2.78;;;2.13;;
63801;SDS011;49949;43.060;25.624;2023-07-30T07:05:43;2.47;;;1.92;;
63801;SDS011;49949;43.060;25.624;2023-07-30T07:08:09;3.92;;;2.22;;
63801;SDS011;49949;43.060;25.624;2023-07-30T07:10:34;2.13;;;1.90;;
63801;SDS011;49949;43.060;25.624;2023-07-30T07:13:00;3.25;;;2.10;;
63801;SDS011;49949;43.060;25.624;2023-07-30T07:15:26;2.42;;;2.30;;
63801;SDS011;49949;43.060;25.624;2023-07-30T07:17:51;1.95;;;1.77;;
63801;SDS011;49949;43.060;25.624;2023-07-30T07:20:17;3.97;;;2.53;;
63801;SDS011;49949;43.060;25.624;2023-07-30T07:22:43;2.90;;;2.03;;
63801;SDS011;49949;43.060;25.624;2023-07-30T07:25:09;2.20;;;2.00;;
63801;SDS011;49949;43.060;25.624;2023-07-30T07:27:35;2.17;;;1.90;;
63801;SDS011;49949;43.060;25.624;2023-07-30T07:30:00;2.30;;;1.70;;
63801;SDS011;49949;43.060;25.624;2023-07-30T07:32:26;2.63;;;2.00;;
63801;SDS011;49949;43.060;25.624;2023-07-30T07:34:52;3.72;;;1.73;;
63801;SDS011;49949;43.060;25.624;2023-07-30T07:37:18;1.80;;;1.70;;
63801;SDS011;49949;43.060;25.624;2023-07-30T07:39:44;3.72;;;1.77;;
63801;SDS011;49949;43.060;25.624;2023-07-30T07:42:10;2.90;;;1.83;;
63801;SDS011;49949;43.060;25.624;2023-07-30T07:44:37;4.43;;;2.60;;
63801;SDS011;49949;43.060;25.624;2023-07-30T07:47:02;2.70;;;2.50;;
63801;SDS011;49949;43.060;25.624;2023-07-30T07:49:28;4.63;;;2.30;;
63801;SDS011;49949;43.060;25.624;2023-07-30T07:51:54;4.57;;;2.47;;
63801;SDS011;49949;43.060;25.624;2023-07-30T07:54:20;4.65;;;3.10;;
63801;SDS011;49949;43.060;25.624;2023-07-30T07:56:46;3.47;;;2.70;;
63801;SDS011;49949;43.060;25.624;2023-07-30T07:59:11;11.00;;;4.15;;
63801;SDS011;49949;43.060;25.624;2023-07-30T08:01:37;6.15;;;3.28;;
63801;SDS011;49949;43.060;25.624;2023-07-30T08:04:03;3.25;;;2.80;;
63801;SDS011;49949;43.060;25.624;2023-07-30T08:06:28;2.50;;;2.30;;
63801;SDS011;49949;43.060;25.624;2023-07-30T08:08:56;4.00;;;2.55;;
63801;SDS011;49949;43.060;25.624;2023-07-30T08:11:22;3.75;;;2.45;;
63801;SDS011;49949;43.060;25.624;2023-07-30T08:13:47;3.75;;;2.95;;
63801;SDS011;49949;43.060;25.624;2023-07-30T08:16:13;6.70;;;2.80;;
63801;SDS011;49949;43.060;25.624;2023-07-30T08:18:39;3.80;;;1.80;;
63801;SDS011;49949;43.060;25.624;2023-07-30T08:21:04;3.78;;;2.05;;
63801;SDS011;49949;43.060;25.624;2023-07-30T08:23:30;2.20;;;2.00;;
63801;SDS011;49949;43.060;25.624;2023-07-30T08:25:56;2.05;;;1.85;;
63801;SDS011;49949;43.060;25.624;2023-07-30T08:28:21;1.77;;;1.67;;
63801;SDS011;49949;43.060;25.624;2023-07-30T08:30:47;3.35;;;1.95;;
63801;SDS011;49949;43.060;25.624;2023-07-30T08:33:13;2.08;;;1.83;;
63801;SDS011;49949;43.060;25.624;2023-07-30T08:35:39;1.83;;;1.73;;
63801;SDS011;49949;43.060;25.624;2023-07-30T08:38:04;1.98;;;1.52;;
63801;SDS011;49949;43.060;25.624;2023-07-30T08:40:31;2.35;;;1.83;;
63801;SDS011;49949;43.060;25.624;2023-07-30T08:42:56;2.05;;;1.85;;
63801;SDS011;49949;43.060;25.624;2023-07-30T08:45:23;3.95;;;1.55;;
63801;SDS011;49949;43.060;25.624;2023-07-30T08:47:48;2.03;;;1.70;;
63801;SDS011;49949;43.060;25.624;2023-07-30T08:50:14;3.00;;;1.77;;
63801;SDS011;49949;43.060;25.624;2023-07-30T08:52:40;1.95;;;1.60;;
63801;SDS011;49949;43.060;25.624;2023-07-30T08:55:07;2.88;;;1.95;;
63801;SDS011;49949;43.060;25.624;2023-07-30T08:57:33;2.17;;;1.70;;
63801;SDS011;49949;43.060;25.624;2023-07-30T09:00:03;3.90;;;2.50;;
63801;SDS011;49949;43.060;25.624;2023-07-30T09:05:08;8.88;;;3.60;;
63801;SDS011;49949;43.060;25.624;2023-07-30T09:07:34;6.82;;;3.25;;
63801;SDS011;49949;43.060;25.624;2023-07-30T09:10:00;10.68;;;3.33;;
63801;SDS011;49949;43.060;25.624;2023-07-30T09:12:29;4.93;;;2.30;;
63801;SDS011;49949;43.060;25.624;2023-07-30T09:14:56;2.83;;;2.38;;
63801;SDS011;49949;43.060;25.624;2023-07-30T09:17:21;2.60;;;2.03;;
63801;SDS011;49949;43.060;25.624;2023-07-30T09:19:48;3.80;;;2.28;;
63801;SDS011;49949;43.060;25.624;2023-07-30T09:22:28;4.85;;;2.35;;
63801;SDS011;49949;43.060;25.624;2023-07-30T09:24:55;9.10;;;2.25;;
63801;SDS011;49949;43.060;25.624;2023-07-30T09:27:22;2.83;;;1.50;;
63801;SDS011;49949;43.060;25.624;2023-07-30T09:29:54;2.33;;;1.45;;
63801;SDS011;49949;43.060;25.624;2023-07-30T09:32:27;2.45;;;1.55;;
63801;SDS011;49949;43.060;25.624;2023-07-30T09:34:54;5.45;;;1.98;;
63801;SDS011;49949;43.060;25.624;2023-07-30T09:37:20;2.05;;;1.75;;
63801;SDS011;49949;43.060;25.624;2023-07-30T09:39:49;2.40;;;1.55;;
63801;SDS011;49949;43.060;25.624;2023-07-30T09:42:14;1.60;;;1.50;;
63801;SDS011;49949;43.060;25.624;2023-07-30T09:44:40;5.05;;;1.80;;
63801;SDS011;49949;43.060;25.624;2023-07-30T09:47:09;2.15;;;1.92;;
63801;SDS011;49949;43.060;25.624;2023-07-30T09:49:36;3.25;;;1.88;;
63801;SDS011;49949;43.060;25.624;2023-07-30T09:52:03;2.83;;;2.10;;
63801;SDS011;49949;43.060;25.624;2023-07-30T09:54:30;3.95;;;1.85;;
63801;SDS011;49949;43.060;25.624;2023-07-30T09:56:56;1.40;;;1.25;;
63801;SDS011;49949;43.060;25.624;2023-07-30T09:59:22;1.73;;;1.52;;
63801;SDS011;49949;43.060;25.624;2023-07-30T10:01:49;2.03;;;1.63;;
63801;SDS011;49949;43.060;25.624;2023-07-30T10:04:15;3.90;;;1.40;;
63801;SDS011;49949;43.060;25.624;2023-07-30T10:09:34;25.13;;;3.42;;
63801;SDS011;49949;43.060;25.624;2023-07-30T10:12:10;4.83;;;2.53;;
63801;SDS011;49949;43.060;25.624;2023-07-30T10:14:38;4.22;;;2.20;;
63801;SDS011;49949;43.060;25.624;2023-07-30T10:17:04;3.33;;;3.03;;
63801;SDS011;49949;43.060;25.624;2023-07-30T10:19:34;2.25;;;1.50;;
63801;SDS011;49949;43.060;25.624;2023-07-30T10:22:21;2.75;;;1.92;;
63801;SDS011;49949;43.060;25.624;2023-07-30T10:24:57;3.15;;;1.92;;
63801;SDS011;49949;43.060;25.624;2023-07-30T10:27:25;1.40;;;1.30;;
63801;SDS011;49949;43.060;25.624;2023-07-30T10:30:11;1.77;;;1.67;;
63801;SDS011;49949;43.060;25.624;2023-07-30T10:32:58;2.97;;;1.33;;
63801;SDS011;49949;43.060;25.624;2023-07-30T10:35:41;1.60;;;1.50;;
63801;SDS011;49949;43.060;25.624;2023-07-30T10:40:59;3.38;;;1.90;;
63801;SDS011;49949;43.060;25.624;2023-07-30T10:43:47;7.65;;;1.65;;
63801;SDS011;49949;43.060;25.624;2023-07-30T10:46:16;1.27;;;1.20;;
63801;SDS011;49949;43.060;25.624;2023-07-30T10:48:43;1.65;;;1.48;;
63801;SDS011;49949;43.060;25.624;2023-07-30T10:51:11;1.58;;;1.48;;
63801;SDS011;49949;43.060;25.624;2023-07-30T10:53:47;2.25;;;1.50;;
63801;SDS011;49949;43.060;25.624;2023-07-30T10:56:18;1.98;;;1.58;;
63801;SDS011;49949;43.060;25.624;2023-07-30T10:58:49;1.77;;;1.27;;
63801;SDS011;49949;43.060;25.624;2023-07-30T11:01:16;1.67;;;1.40;;
63801;SDS011;49949;43.060;25.624;2023-07-30T11:03:42;1.83;;;1.35;;
63801;SDS011;49949;43.060;25.624;2023-07-30T11:06:08;1.67;;;1.55;;
63801;SDS011;49949;43.060;25.624;2023-07-30T11:11:06;4.65;;;2.05;;
63801;SDS011;49949;43.060;25.624;2023-07-30T11:16:03;3.38;;;2.65;;
63801;SDS011;49949;43.060;25.624;2023-07-30T11:23:33;1.92;;;1.63;;
63801;SDS011;49949;43.060;25.624;2023-07-30T11:26:03;1.63;;;1.52;;
63801;SDS011;49949;43.060;25.624;2023-07-30T11:28:31;4.15;;;1.70;;
63801;SDS011;49949;43.060;25.624;2023-07-30T11:31:04;2.35;;;1.63;;
63801;SDS011;49949;43.060;25.624;2023-07-30T11:36:00;1.55;;;1.45;;
63801;SDS011;49949;43.060;25.624;2023-07-30T11:38:27;2.20;;;1.40;;
63801;SDS011;49949;43.060;25.624;2023-07-30T11:40:53;2.70;;;1.67;;
63801;SDS011;49949;43.060;25.624;2023-07-30T11:43:20;1.67;;;1.50;;
63801;SDS011;49949;43.060;25.624;2023-07-30T11:45:47;2.58;;;1.75;;
63801;SDS011;49949;43.060;25.624;2023-07-30T11:48:13;1.73;;;1.63;;
63801;SDS011;49949;43.060;25.624;2023-07-30T11:50:46;2.35;;;2.15;;
63801;SDS011;49949;43.060;25.624;2023-07-30T11:53:12;2.08;;;1.98;;
63801;SDS011;49949;43.060;25.624;2023-07-30T11:55:38;1.80;;;1.55;;
63801;SDS011;49949;43.060;25.624;2023-07-30T11:58:08;2.35;;;1.60;;
63801;SDS011;49949;43.060;25.624;2023-07-30T12:00:35;1.95;;;1.85;;
63801;SDS011;49949;43.060;25.624;2023-07-30T12:03:02;1.65;;;1.48;;
63801;SDS011;49949;43.060;25.624;2023-07-30T12:05:36;1.70;;;1.60;;
63801;SDS011;49949;43.060;25.624;2023-07-30T12:08:04;1.60;;;1.50;;
63801;SDS011;49949;43.060;25.624;2023-07-30T12:10:45;1.63;;;1.52;;
63801;SDS011;49949;43.060;25.624;2023-07-30T12:13:17;19.63;;;16.20;;
63801;SDS011;49949;43.060;25.624;2023-07-30T12:15:52;2.85;;;2.25;;
63801;SDS011;49949;43.060;25.624;2023-07-30T12:18:21;4.07;;;1.85;;
63801;SDS011;49949;43.060;25.624;2023-07-30T12:20:51;5.97;;;2.00;;
63801;SDS011;49949;43.060;25.624;2023-07-30T12:23:19;2.28;;;2.10;;
63801;SDS011;49949;43.060;25.624;2023-07-30T12:25:45;4.45;;;2.38;;
63801;SDS011;49949;43.060;25.624;2023-07-30T12:28:11;4.10;;;2.53;;
63801;SDS011;49949;43.060;25.624;2023-07-30T12:30:37;4.90;;;2.13;;
63801;SDS011;49949;43.060;25.624;2023-07-30T12:33:03;4.97;;;2.53;;
63801;SDS011;49949;43.060;25.624;2023-07-30T12:35:33;2.55;;;2.10;;
63801;SDS011;49949;43.060;25.624;2023-07-30T12:37:59;10.98;;;2.00;;
63801;SDS011;49949;43.060;25.624;2023-07-30T12:40:26;25.02;;;2.75;;
63801;SDS011;49949;43.060;25.624;2023-07-30T12:42:54;3.40;;;1.98;;
63801;SDS011;49949;43.060;25.624;2023-07-30T12:45:20;2.45;;;1.77;;
63801;SDS011;49949;43.060;25.624;2023-07-30T12:47:46;2.85;;;2.50;;
63801;SDS011;49949;43.060;25.624;2023-07-30T12:50:12;5.85;;;4.03;;
63801;SDS011;49949;43.060;25.624;2023-07-30T12:52:37;2.22;;;2.13;;
63801;SDS011;49949;43.060;25.624;2023-07-30T12:55:04;2.95;;;2.70;;
63801;SDS011;49949;43.060;25.624;2023-07-30T12:57:30;2.45;;;2.25;;
63801;SDS011;49949;43.060;25.624;2023-07-30T12:59:56;4.15;;;3.10;;
63801;SDS011;49949;43.060;25.624;2023-07-30T13:02:22;4.68;;;2.88;;
63801;SDS011;49949;43.060;25.624;2023-07-30T13:04:48;11.68;;;3.10;;
63801;SDS011;49949;43.060;25.624;2023-07-30T13:07:13;3.90;;;3.45;;
63801;SDS011;49949;43.060;25.624;2023-07-30T13:09:39;2.08;;;1.88;;
63801;SDS011;49949;43.060;25.624;2023-07-30T13:12:05;2.67;;;1.88;;
63801;SDS011;49949;43.060;25.624;2023-07-30T13:14:31;2.33;;;2.13;;
63801;SDS011;49949;43.060;25.624;2023-07-30T13:16:56;2.17;;;1.98;;
63801;SDS011;49949;43.060;25.624;2023-07-30T13:19:22;2.10;;;1.90;;
63801;SDS011;49949;43.060;25.624;2023-07-30T13:21:48;1.60;;;1.50;;
63801;SDS011;49949;43.060;25.624;2023-07-30T13:24:13;1.65;;;1.55;;
63801;SDS011;49949;43.060;25.624;2023-07-30T13:26:39;2.00;;;1.80;;
63801;SDS011;49949;43.060;25.624;2023-07-30T13:29:05;1.83;;;1.73;;
63801;SDS011;49949;43.060;25.624;2023-07-30T13:31:31;2.28;;;1.70;;
63801;SDS011;49949;43.060;25.624;2023-07-30T13:33:56;3.17;;;2.15;;
63801;SDS011;49949;43.060;25.624;2023-07-30T13:36:22;2.47;;;1.98;;
63801;SDS011;49949;43.060;25.624;2023-07-30T13:38:48;2.33;;;1.70;;
63801;SDS011;49949;43.060;25.624;2023-07-30T13:41:13;3.05;;;2.58;;
63801;SDS011;49949;43.060;25.624;2023-07-30T13:43:39;1.90;;;1.70;;
63801;SDS011;49949;43.060;25.624;2023-07-30T13:46:05;2.05;;;1.88;;
63801;SDS011;49949;43.060;25.624;2023-07-30T13:48:31;2.03;;;1.85;;
63801;SDS011;49949;43.060;25.624;2023-07-30T13:50:57;3.00;;;1.90;;
63801;SDS011;49949;43.060;25.624;2023-07-30T13:53:22;3.58;;;1.60;;
63801;SDS011;49949;43.060;25.624;2023-07-30T13:55:48;2.65;;;1.60;;
63801;SDS011;49949;43.060;25.624;2023-07-30T13:58:14;3.45;;;1.70;;
63801;SDS011;49949;43.060;25.624;2023-07-30T14:00:40;2.10;;;1.92;;
63801;SDS011;49949;43.060;25.624;2023-07-30T14:03:09;2.10;;;1.88;;
63801;SDS011;49949;43.060;25.624;2023-07-30T14:05:36;1.77;;;1.67;;
63801;SDS011;49949;43.060;25.624;2023-07-30T14:08:02;1.60;;;1.50;;
63801;SDS011;49949;43.060;25.624;2023-07-30T14:10:28;2.50;;;1.75;;
63801;SDS011;49949;43.060;25.624;2023-07-30T14:12:54;2.55;;;1.60;;
63801;SDS011;49949;43.060;25.624;2023-07-30T14:15:19;2.53;;;2.17;;
63801;SDS011;49949;43.060;25.624;2023-07-30T14:17:45;2.45;;;2.20;;
63801;SDS011;49949;43.060;25.624;2023-07-30T14:20:11;2.70;;;2.00;;
63801;SDS011;49949;43.060;25.624;2023-07-30T14:22:37;2.72;;;1.60;;
63801;SDS011;49949;43.060;25.624;2023-07-30T14:25:02;1.98;;;1.77;;
63801;SDS011;49949;43.060;25.624;2023-07-30T14:27:28;1.83;;;1.70;;
63801;SDS011;49949;43.060;25.624;2023-07-30T14:29:54;4.13;;;3.65;;
63801;SDS011;49949;43.060;25.624;2023-07-30T14:32:20;2.53;;;2.10;;
63801;SDS011;49949;43.060;25.624;2023-07-30T14:34:46;2.63;;;1.98;;
63801;SDS011;49949;43.060;25.624;2023-07-30T14:37:11;2.25;;;1.77;;
63801;SDS011;49949;43.060;25.624;2023-07-30T14:39:37;1.83;;;1.73;;
63801;SDS011;49949;43.060;25.624;2023-07-30T14:42:03;2.00;;;1.90;;
63801;SDS011;49949;43.060;25.624;2023-07-30T14:44:29;2.70;;;1.80;;
63801;SDS011;49949;43.060;25.624;2023-07-30T14:46:55;2.90;;;1.70;;
63801;SDS011;49949;43.060;25.624;2023-07-30T14:49:22;2.13;;;1.98;;